createdAt,value
2016-03-17T00:02:39.126Z,1027.91
2016-03-17T00:05:42.056Z,1027.93
2016-03-17T00:08:53.939Z,1028.07
2016-03-17T00:12:02.947Z,1027.95
2016-03-17T00:15:11.705Z,1027.97
2016-03-17T00:18:23.307Z,1027.87
2016-03-17T00:21:36.975Z,1027.91
2016-03-17T00:24:38.796Z,1027.87
2016-03-17T00:27:50.522Z,1027.89
2016-03-17T00:31:02.156Z,1027.85
2016-03-17T00:34:12.053Z,1027.81
2016-03-17T00:37:24.250Z,1027.77
2016-03-17T00:40:40.103Z,1027.81
2016-03-17T00:43:43.065Z,1027.73
2016-03-17T00:46:54.425Z,1027.75
2016-03-17T00:50:05.200Z,1027.75
2016-03-17T00:53:17.083Z,1027.65
2016-03-17T00:56:32.406Z,1027.73
2016-03-17T00:59:39.227Z,1027.79
2016-03-17T01:02:42.172Z,1027.77
2016-03-17T01:05:52.711Z,1027.69
2016-03-17T01:09:05.605Z,1027.71
2016-03-17T01:12:17.582Z,1027.53
2016-03-17T01:15:33.436Z,1027.57
2016-03-17T01:18:40.273Z,1027.45
2016-03-17T01:21:42.937Z,1027.59
2016-03-17T01:24:52.961Z,1027.47
2016-03-17T01:28:02.156Z,1027.39
2016-03-17T01:31:11.477Z,1027.45
2016-03-17T01:34:23.125Z,1027.43
2016-03-17T01:37:38.746Z,1027.37
2016-03-17T01:40:41.472Z,1027.29
2016-03-17T01:43:53.230Z,1027.41
2016-03-17T01:47:04.895Z,1027.31
2016-03-17T01:50:16.528Z,1027.25
2016-03-17T01:53:26.302Z,1027.23
2016-03-17T01:56:37.545Z,1027.25
2016-03-17T01:59:49.368Z,1027.23
2016-03-17T02:03:01.156Z,1027.25
2016-03-17T02:06:12.664Z,1027.17
2016-03-17T02:09:24.579Z,1027.27
2016-03-17T02:12:40.493Z,1027.25
2016-03-17T02:15:43.330Z,1027.29
2016-03-17T02:18:54.856Z,1027.21
2016-03-17T02:22:06.911Z,1027.27
2016-03-17T02:25:18.607Z,1027.27
2016-03-17T02:28:33.990Z,1027.25
2016-03-17T02:31:40.498Z,1027.23
2016-03-17T02:34:42.975Z,1027.19
2016-03-17T02:37:54.408Z,1027.33
2016-03-17T02:41:04.322Z,1027.23
2016-03-17T02:44:13.986Z,1027.1
2016-03-17T02:47:25.604Z,1027.25
2016-03-17T02:50:39.346Z,1027.23
2016-03-17T02:53:41.824Z,1027.19
2016-03-17T02:56:50.818Z,1027.12
2016-03-17T03:00:06.435Z,1027.08
2016-03-17T03:03:13.725Z,1027.16
2016-03-17T03:06:25.514Z,1027.02
2016-03-17T03:09:39.632Z,1027.02
2016-03-17T03:12:42.296Z,1027.02
2016-03-17T03:15:53.806Z,1026.96
2016-03-17T03:19:03.596Z,1027.06
2016-03-17T03:22:15.213Z,1027.06
2016-03-17T03:25:24.957Z,1026.96
2016-03-17T03:28:40.339Z,1027.04
2016-03-17T03:31:42.737Z,1027.02
2016-03-17T03:34:52.451Z,1027.06
2016-03-17T03:38:02.275Z,1026.9
2016-03-17T03:41:13.668Z,1026.9
2016-03-17T03:44:24.921Z,1026.9
2016-03-17T03:47:40.682Z,1026.92
2016-03-17T03:50:43.279Z,1026.86
2016-03-17T03:53:55.068Z,1026.9
2016-03-17T03:57:06.619Z,1026.96
2016-03-17T04:00:18.128Z,1026.86
2016-03-17T04:03:33.604Z,1026.92
2016-03-17T04:06:39.940Z,1026.8
2016-03-17T04:09:42.573Z,1026.92
2016-03-17T04:12:53.053Z,1026.9
2016-03-17T04:16:04.608Z,1026.94
2016-03-17T04:19:16.007Z,1026.86
2016-03-17T04:22:24.452Z,1026.92
2016-03-17T04:25:39.867Z,1026.82
2016-03-17T04:28:42.313Z,1026.7
2016-03-17T04:31:51.055Z,1026.72
2016-03-17T04:35:02.518Z,1026.76
2016-03-17T04:38:11.042Z,1026.66
2016-03-17T04:41:20.098Z,1026.68
2016-03-17T04:44:32.918Z,1026.6
2016-03-17T04:47:39.551Z,1026.56
2016-03-17T04:50:42.059Z,1026.52
2016-03-17T04:53:53.272Z,1026.42
2016-03-17T04:57:04.077Z,1026.5
2016-03-17T05:00:15.696Z,1026.44
2016-03-17T05:03:26.860Z,1026.44
2016-03-17T05:06:38.462Z,1026.58
2016-03-17T05:09:49.812Z,1026.48
2016-03-17T05:13:00.949Z,1026.38
2016-03-17T05:16:12.488Z,1026.48
2016-03-17T05:19:23.387Z,1026.44
2016-03-17T05:22:38.786Z,1026.46
2016-03-17T05:25:41.169Z,1026.4
2016-03-17T05:28:52.630Z,1026.4
2016-03-17T05:32:01.609Z,1026.38
2016-03-17T05:35:09.774Z,1026.52
2016-03-17T05:38:20.720Z,1026.42
2016-03-17T05:41:36.337Z,1026.44
2016-03-17T05:44:38.986Z,1026.42
2016-03-17T05:47:50.744Z,1026.18
2016-03-17T05:51:02.457Z,1026.34
2016-03-17T05:54:14.200Z,1026.24
2016-03-17T05:57:23.911Z,1026.18
2016-03-17T06:00:39.591Z,1026.2
2016-03-17T06:03:42.443Z,1026.22
2016-03-17T06:06:54.405Z,1026.22
2016-03-17T06:10:05.712Z,1026.1
2016-03-17T06:13:14.689Z,1026
2016-03-17T06:16:31.431Z,1026.12
2016-03-17T06:19:38.642Z,1025.96
2016-03-17T06:22:42.103Z,1025.86
2016-03-17T06:25:51.892Z,1025.92
2016-03-17T06:29:04.059Z,1025.62
2016-03-17T06:32:15.693Z,1025.84
2016-03-17T06:35:25.388Z,1025.7
2016-03-17T06:38:37.580Z,1024.37
2016-03-17T06:41:51.455Z,1023.89
2016-03-17T06:45:03.560Z,1023.63
2016-03-17T06:48:16.130Z,1023.57
2016-03-17T06:51:32.782Z,1023.49
2016-03-17T06:54:38.821Z,1023.39
2016-03-17T06:57:50.985Z,1023.28
2016-03-17T07:01:02.215Z,1023.24
2016-03-17T07:04:15.239Z,1023.32
2016-03-17T07:07:26.747Z,1023.35
2016-03-17T07:10:41.146Z,1023.55
2016-03-17T07:13:53.311Z,1023.87
2016-03-17T07:17:05.336Z,1024.31
2016-03-17T07:20:16.704Z,1024.31
2016-03-17T07:23:34.149Z,1024.33
2016-03-17T07:26:39.080Z,1024.35
2016-03-17T07:29:52.447Z,1024.49
2016-03-17T07:33:03.333Z,1024.95
2016-03-17T07:36:15.418Z,1024.97
2016-03-17T07:39:32.490Z,1024.93
2016-03-17T07:42:40.638Z,1024.81
2016-03-17T07:45:44.959Z,1024.55
2016-03-17T07:48:58.045Z,1023.59
2016-03-17T07:52:12.821Z,1023.08
2016-03-17T07:55:24.517Z,1022.92
2016-03-17T07:58:40.510Z,1022.92
2016-03-17T08:01:46.782Z,1022.82
2016-03-17T08:04:59.994Z,1022.9
2016-03-17T08:08:14.150Z,1022.94
2016-03-17T08:11:34.581Z,1022.84
2016-03-17T08:14:42.479Z,1022.68
2016-03-17T08:17:57.175Z,1022.74
2016-03-17T08:21:13.120Z,1022.78
2016-03-17T08:24:33.287Z,1022.68
2016-03-17T08:27:41.077Z,1022.76
2016-03-17T08:30:55.101Z,1022.58
2016-03-17T08:34:07.780Z,1022.52
2016-03-17T08:37:22.338Z,1022.52
2016-03-17T08:40:39.565Z,1022.52
2016-03-17T08:43:46.306Z,1022.46
2016-03-17T08:47:00.003Z,1022.42
2016-03-17T08:50:12.527Z,1022.44
2016-03-17T08:53:25.272Z,1022.42
2016-03-17T08:56:39.999Z,1022.48
2016-03-17T08:59:55.194Z,1022.3
2016-03-17T09:03:10.358Z,1022.44
2016-03-17T09:06:25.312Z,1022.44
2016-03-17T09:09:40.210Z,1022.5
2016-03-17T09:12:51.484Z,1022.44
2016-03-17T09:16:06.242Z,1022.8
2016-03-17T09:19:20.940Z,1022.92
2016-03-17T09:22:37.276Z,1022.7
2016-03-17T09:25:43.175Z,1022.66
2016-03-17T09:28:54.828Z,1022.76
2016-03-17T09:32:09.570Z,1022.66
2016-03-17T09:35:24.269Z,1022.36
2016-03-17T09:38:37.495Z,1022.34
2016-03-17T09:41:52.910Z,1022.48
2016-03-17T09:45:07.230Z,1022.3
2016-03-17T09:48:21.382Z,1022.54
2016-03-17T09:51:39.671Z,1022.66
2016-03-17T09:54:45.211Z,1022.5
2016-03-17T09:57:59.172Z,1023.08
2016-03-17T10:01:11.851Z,1023.35
2016-03-17T10:04:23.409Z,1023.55
2016-03-17T10:07:36.995Z,1023.61
2016-03-17T10:10:50.613Z,1023.57
2016-03-17T10:14:04.419Z,1023.69
2016-03-17T10:17:18.301Z,1023.71
2016-03-17T10:20:36.593Z,1023.83
2016-03-17T10:23:42.788Z,1023.93
2016-03-17T10:26:57.546Z,1024.01
2016-03-17T10:30:10.054Z,1024.01
2016-03-17T10:33:22.501Z,1024.07
2016-03-17T10:36:38.370Z,1024.15
2016-03-17T10:39:44.784Z,1024.23
2016-03-17T10:42:59.167Z,1024.19
2016-03-17T10:46:13.754Z,1024.21
2016-03-17T10:49:25.515Z,1024.15
2016-03-17T10:52:39.694Z,1024.03
2016-03-17T10:55:52.390Z,1024.11
2016-03-17T10:59:06.477Z,1024.03
2016-03-17T11:02:18.062Z,1024.07
2016-03-17T11:05:33.089Z,1024.11
2016-03-17T11:08:39.206Z,1023.85
2016-03-17T11:11:54.030Z,1023.93
2016-03-17T11:15:05.850Z,1023.93
2016-03-17T11:18:17.217Z,1023.85
2016-03-17T11:21:34.823Z,1023.81
2016-03-17T11:24:40.690Z,1023.61
2016-03-17T11:27:52.808Z,1023.61
2016-03-17T11:31:04.175Z,1023.63
2016-03-17T11:34:18.776Z,1023.59
2016-03-17T11:37:37.271Z,1023.59
2016-03-17T11:40:43.187Z,1023.51
2016-03-17T11:43:54.709Z,1023.39
2016-03-17T11:47:09.203Z,1023.37
2016-03-17T11:50:21.976Z,1023.35
2016-03-17T11:53:38.143Z,1023.24
2016-03-17T11:56:44.151Z,1023.28
2016-03-17T11:59:58.300Z,1023.24
2016-03-17T12:03:10.593Z,1023.14
2016-03-17T12:06:25.023Z,1022.96
2016-03-17T12:09:38.926Z,1023.06
2016-03-17T12:12:53.433Z,1022.84
2016-03-17T12:16:07.972Z,1022.88
2016-03-17T12:19:19.199Z,1022.88
2016-03-17T12:22:37.632Z,1022.8
2016-03-17T12:25:43.483Z,1022.82
2016-03-17T12:28:57.960Z,1022.9
2016-03-17T12:32:10.516Z,1022.74
2016-03-17T12:35:22.851Z,1022.72
2016-03-17T12:38:41.206Z,1022.66
2016-03-17T12:41:46.870Z,1022.48
2016-03-17T12:45:01.141Z,1022.54
2016-03-17T12:48:15.486Z,1022.46
2016-03-17T12:51:33.696Z,1022.4
2016-03-17T12:54:39.226Z,1022.34
2016-03-17T12:57:53.714Z,1022.16
2016-03-17T13:01:06.345Z,1022.08
2016-03-17T13:04:20.851Z,1022.02
2016-03-17T13:07:39.119Z,1022.02
2016-03-17T13:10:44.877Z,1021.98
2016-03-17T13:13:57.808Z,1021.83
2016-03-17T13:17:11.658Z,1021.89
2016-03-17T13:20:25.807Z,1021.91
2016-03-17T13:23:38.693Z,1021.87
2016-03-17T13:26:54.375Z,1021.81
2016-03-17T13:30:06.179Z,1021.79
2016-03-17T13:33:18.968Z,1021.63
2016-03-17T13:36:37.479Z,1021.65
2016-03-17T13:39:43.347Z,1021.55
2016-03-17T13:42:58.104Z,1021.47
2016-03-17T13:46:12.473Z,1021.33
2016-03-17T13:49:25.808Z,1021.31
2016-03-17T13:52:40.303Z,1021.21
2016-03-17T13:55:52.030Z,1021.21
2016-03-17T13:59:06.366Z,1021.13
2016-03-17T14:02:18.062Z,1021.17
2016-03-17T14:05:36.026Z,1021.05
2016-03-17T14:08:41.627Z,1021.05
2016-03-17T14:11:55.995Z,1021.03
2016-03-17T14:15:07.534Z,1020.97
2016-03-17T14:18:21.933Z,1020.85
2016-03-17T14:21:37.741Z,1020.85
2016-03-17T14:24:43.436Z,1020.83
2016-03-17T14:27:55.851Z,1020.81
2016-03-17T14:31:10.046Z,1020.73
2016-03-17T14:34:23.476Z,1020.61
2016-03-17T14:37:37.909Z,1020.65
2016-03-17T14:40:52.277Z,1020.55
2016-03-17T14:44:06.660Z,1020.47
2016-03-17T14:47:19.011Z,1020.39
2016-03-17T14:50:35.350Z,1020.39
2016-03-17T14:53:40.889Z,1020.43
2016-03-17T14:56:52.695Z,1020.43
2016-03-17T15:00:07.124Z,1020.47
2016-03-17T15:03:19.632Z,1020.41
2016-03-17T15:06:36.049Z,1020.31
2016-03-17T15:09:41.541Z,1020.23
2016-03-17T15:12:52.754Z,1020.13
2016-03-17T15:16:06.839Z,1020.15
2016-03-17T15:19:20.987Z,1020.06
2016-03-17T15:22:36.686Z,1020.02
2016-03-17T15:25:42.225Z,1019.94
2016-03-17T15:28:56.359Z,1019.86
2016-03-17T15:32:10.554Z,1019.84
2016-03-17T15:35:24.781Z,1019.88
2016-03-17T15:38:40.854Z,1019.7
2016-03-17T15:41:46.456Z,1019.8
2016-03-17T15:45:00.621Z,1019.64
2016-03-17T15:48:14.331Z,1019.72
2016-03-17T15:51:32.793Z,1019.68
2016-03-17T15:54:38.334Z,1019.62
2016-03-17T15:57:52.577Z,1019.56
2016-03-17T16:04:16.892Z,1019.5
2016-03-17T16:07:31.837Z,1019.4
2016-03-17T16:10:41.204Z,1019.4
2016-03-17T16:13:46.572Z,1019.36
2016-03-17T16:16:59.033Z,1019.36
2016-03-17T16:20:12.435Z,1019.36
2016-03-17T16:23:26.552Z,1019.3
2016-03-17T16:26:38.560Z,1019.24
2016-03-17T16:29:52.709Z,1019.28
2016-03-17T16:33:04.576Z,1019
2016-03-17T16:36:15.603Z,1019.16
2016-03-17T16:39:31.548Z,1018.96
2016-03-17T16:42:40.775Z,1019.04
2016-03-17T16:45:45.908Z,1019
2016-03-17T16:48:59.885Z,1019.06
2016-03-17T16:52:13.521Z,1019.14
2016-03-17T16:55:27.450Z,1019.08
2016-03-17T16:58:40.662Z,1018.98
2016-03-17T17:01:51.638Z,1018.94
2016-03-17T17:05:05.334Z,1018.98
2016-03-17T17:08:19.173Z,1019.08
2016-03-17T17:11:36.368Z,1019.08
2016-03-17T17:14:41.767Z,1019.04
2016-03-17T17:17:55.667Z,1018.96
2016-03-17T17:21:07.221Z,1019.02
2016-03-17T17:24:19.403Z,1019.1
2016-03-17T17:27:37.303Z,1019.04
2016-03-17T17:30:42.201Z,1019.06
2016-03-17T17:33:56.021Z,1019
2016-03-17T17:37:09.845Z,1019.1
2016-03-17T17:40:20.306Z,1019.08
2016-03-17T17:43:37.126Z,1019
2016-03-17T17:46:41.994Z,1019.06
2016-03-17T17:49:53.158Z,1018.9
2016-03-17T17:53:04.932Z,1018.84
2016-03-17T17:56:16.083Z,1018.8
2016-03-17T17:59:33.514Z,1018.94
2016-03-17T18:02:38.240Z,1018.78
2016-03-17T18:05:49.436Z,1018.92
2016-03-17T18:09:01.554Z,1018.8
2016-03-17T18:12:15.079Z,1018.72
2016-03-17T18:15:32.869Z,1018.7
2016-03-17T18:18:37.580Z,1018.8
2016-03-17T18:21:50.838Z,1018.76
2016-03-17T18:25:04.080Z,1018.76
2016-03-17T18:28:17.529Z,1018.8
2016-03-17T18:31:34.646Z,1018.8
2016-03-17T18:34:39.421Z,1018.72
2016-03-17T18:37:52.756Z,1018.56
2016-03-17T18:41:06.202Z,1018.64
2016-03-17T18:44:19.837Z,1018.5
2016-03-17T18:47:37.221Z,1018.52
2016-03-17T18:50:41.964Z,1018.48
2016-03-17T18:53:52.517Z,1018.5
2016-03-17T18:57:06.167Z,1018.4
2016-03-17T19:00:17.831Z,1018.42
2016-03-17T19:03:32.137Z,1018.46
2016-03-17T19:06:41.044Z,1018.32
2016-03-17T19:09:45.745Z,1018.44
2016-03-17T19:12:59.050Z,1018.28
2016-03-17T19:16:12.464Z,1018.38
2016-03-17T19:19:23.644Z,1018.32
2016-03-17T19:22:41.168Z,1018.24
2016-03-17T19:25:45.863Z,1018.24
2016-03-17T19:28:59.202Z,1018.3
2016-03-17T19:32:12.351Z,1018.24
2016-03-17T19:35:25.687Z,1018.15
2016-03-17T19:38:38.914Z,1018.09
2016-03-17T19:41:52.190Z,1018.09
2016-03-17T19:45:02.870Z,1018.09
2016-03-17T19:48:16.128Z,1018.19
2016-03-17T19:51:32.933Z,1018.03
2016-03-17T19:54:37.707Z,1018.07
2016-03-17T19:57:51.046Z,1018.07
2016-03-17T20:01:04.788Z,1017.95
2016-03-17T20:04:17.969Z,1017.89
2016-03-17T20:07:35.352Z,1017.87
2016-03-17T20:10:40.078Z,1017.97
2016-03-17T20:13:53.386Z,1017.73
2016-03-17T20:17:06.629Z,1017.71
2016-03-17T20:20:19.887Z,1017.79
2016-03-17T20:23:35.613Z,1017.79
2016-03-17T20:26:40.215Z,1017.77
2016-03-17T20:29:52.880Z,1017.77
2016-03-17T20:33:05.796Z,1017.85
2016-03-17T20:36:19.539Z,1017.69
2016-03-17T20:39:37.062Z,1017.75
2016-03-17T20:42:41.649Z,1017.69
2016-03-17T20:45:55.235Z,1017.61
2016-03-17T20:49:08.309Z,1017.57
2016-03-17T20:52:21.144Z,1017.55
2016-03-17T20:55:38.309Z,1017.53
2016-03-17T20:58:43.067Z,1017.47
2016-03-17T21:01:54.778Z,1017.47
2016-03-17T21:05:08.085Z,1017.35
2016-03-17T21:08:18.890Z,1017.43
2016-03-17T21:11:36.759Z,1017.37
2016-03-17T21:14:41.313Z,1017.37
2016-03-17T21:17:52.211Z,1017.23
2016-03-17T21:21:05.472Z,1017.23
2016-03-17T21:24:18.903Z,1017.27
2016-03-17T21:30:40.653Z,1017.21
2016-03-17T21:33:53.896Z,1017.15
2016-03-17T21:37:05.469Z,1017.05
2016-03-17T21:40:19.429Z,1017.13
2016-03-17T21:43:36.376Z,1017.09
2016-03-17T21:46:40.930Z,1017.09
2016-03-17T21:49:54.048Z,1017.19
2016-03-17T21:53:04.908Z,1017.19
2016-03-17T21:56:14.984Z,1016.99
2016-03-17T21:59:26.274Z,1017.01
2016-03-17T22:02:39.339Z,1016.95
2016-03-17T22:05:52.701Z,1017.01
2016-03-17T22:09:05.631Z,1016.95
2016-03-17T22:12:18.872Z,1016.91
2016-03-17T22:15:35.598Z,1016.91
2016-03-17T22:18:40.075Z,1017.01
2016-03-17T22:21:53.505Z,1017.03
2016-03-17T22:25:05.594Z,1017.01
2016-03-17T22:28:16.008Z,1016.91
2016-03-17T22:31:27.110Z,1016.83
2016-03-17T22:34:40.322Z,1016.85
2016-03-17T22:37:51.376Z,1016.76
2016-03-17T22:41:04.434Z,1016.76
2016-03-17T22:44:17.349Z,1016.7
2016-03-17T22:47:28.262Z,1016.7
2016-03-17T22:50:41.317Z,1016.56
2016-03-17T22:53:45.763Z,1016.66
2016-03-17T22:56:58.895Z,1016.64
2016-03-17T23:00:09.282Z,1016.6
2016-03-17T23:03:19.337Z,1016.46
2016-03-17T23:06:36.142Z,1016.62
2016-03-17T23:09:40.588Z,1016.44
2016-03-17T23:12:53.564Z,1016.34
2016-03-17T23:16:05.810Z,1016.32
2016-03-17T23:19:15.755Z,1016.4
2016-03-17T23:22:25.607Z,1016.32
2016-03-17T23:25:38.912Z,1016.24
2016-03-17T23:28:49.764Z,1016.14
2016-03-17T23:32:01.303Z,1016.2
2016-03-17T23:35:13.141Z,1016.02
2016-03-17T23:38:26.211Z,1016.06
2016-03-17T23:41:39.361Z,1015.94
2016-03-17T23:44:50.166Z,1015.94
2016-03-17T23:48:01.252Z,1015.9
2016-03-17T23:51:14.044Z,1015.9
2016-03-17T23:54:26.740Z,1015.92
2016-03-17T23:57:41.763Z,1015.84
